LFLB/CMF METAR and TAF weather

Enter ICAO airport designator
Station Type Date Time Source
LFLB METAR 2021/04/13 07:00 UTC NOAA

LFLB 130700Z AUTO 01010KT 350V050 CAVOK 06/M00 Q1027 NOSIG


Station Type Date Time Source
LFLB Decoded METAR 2021/04/13 07:00 UTC NOAA

Chambery / Aix-Les-Bains, France (LFLB) 45-39N 005-53E 239M
Apr 13, 2021 - 03:00 AM EDT / 2021.04.13 0700 UTC
Wind: from the N (010 degrees) at 12 MPH (10 KT) (direction variable):0
Visibility: greater than 7 mile(s):0
Temperature: 42 F (6 C)
Dew Point: 32 F (0 C)
Relative Humidity: 65%
Pressure (altimeter): 30.33 in. Hg (1027 hPa)
ob: LFLB 130700Z AUTO 01010KT 350V050 CAVOK 06/M00 Q1027 NOSIG
cycle: 7

Station Type Date Time Source
LFLB TAF 2021/04/13 03:21 UTC NOAA

TAF TAF LFLB 130200Z 1303/1403 36008KT CAVOK
BECMG 1306/1309 36015KT

Example: see airport list